John P. Tully — CG2958 — position and weather

sailwx.info

Track history (hours):
 
Tides and Currents Weather Stations Pressure Air Temp Water Temp Dewpoint Dewpoint Depression Visibility Wind Speed Wind Dir Waves Ship Positions

Oceanographic research ship John P. Tully (Canada)

Detailed information on ship capabilities available from University of Delaware's Ocean Information Center.

Last reported at 2017-Jun-26 23:04 UTC. Time now 2017-Jun-27 00:19 UTC.
Position N 48°39' W 123°27'.

Length 68.9 m; beam 14.5 m; draft 4.5 m.

MMSI: 316114000.

Date/timePositionNaut miles runAvg speedWind from/ knotsBaromVisibWave heightAir tempDewpointWater temp
2017-Jun-26 23:04N 48°39' W 123°27'0 0.0
2017-Jun-26 22:55N 48°39' W 123°27'3 5.3
2017-Jun-26 22:25N 48°41' W 123°30'4 9.9
2017-Jun-26 22:00N 48°43' W 123°25'2 3.1
2017-Jun-26 21:26N 48°45' W 123°23'2 4.8
2017-Jun-26 21:01N 48°46' W 123°21'5 8.2
2017-Jun-26 20:22N 48°51' W 123°21'13 8.9
2017-Jun-26 18:51N 49°04' W 123°24'811.1
2017-Jun-26 18:09N 49°12' W 123°26'0 0.1
2017-Jun-26 17:59N 49°12' W 123°26'0 0.0
2017-Jun-26 17:30N 49°12' W 123°26'710.2
2017-Jun-26 16:50N 49°13' W 123°37'9 5.5
2017-Jun-26 15:16N 49°17' W 123°48'2 5.8
2017-Jun-26 14:53N 49°19' W 123°48'1 2.7
2017-Jun-26 14:28N 49°20' W 123°47'7 6.5
2017-Jun-26 13:27N 49°26' W 123°43'1 1.4
2017-Jun-26 12:35N 49°25' W 123°45'1 0.6
2017-Jun-26 10:13N 49°24' W 123°46'2 9.1
2017-Jun-26 09:59N 49°25' W 123°49'5 9.6
2017-Jun-26 09:29N 49°26' W 123°56'8 9.7
2017-Jun-26 08:41N 49°31' W 124°05'2 9.7
2017-Jun-26 08:30N 49°33' W 124°07'510.5
2017-Jun-26 07:59N 49°37' W 124°12'4 9.4
2017-Jun-26 07:30N 49°40' W 124°16'0 0.2
2017-Jun-26 07:00N 49°40' W 124°16'0 0.0
2017-Jun-26 06:30N 49°40' W 124°16'1 2.5
2017-Jun-26 06:01N 49°41' W 124°18'510.1
2017-Jun-26 05:30N 49°44' W 124°24'5 9.9
2017-Jun-26 05:01N 49°46' W 124°31'2 3.1
2017-Jun-26 04:30N 49°47' W 124°33'4 8.6
2017-Jun-26 04:00N 49°49' W 124°38'510.4
2017-Jun-26 03:31N 49°50' W 124°46'510.1
2017-Jun-26 03:00N 49°51' W 124°54'5 9.7
2017-Jun-26 02:31N 49°52' W 125°02'1 2.6
2017-Jun-26 02:00N 49°53' W 125°00'1 1.1
2017-Jun-26 01:30N 49°53' W 124°60'0 0.1
2017-Jun-26 01:00N 49°53' W 124°60'0 0.1
2017-Jun-26 00:31N 49°53' W 124°60'4 7.2
2017-Jun-26 00:00N 49°55' W 124°55'2 4.4
2017-Jun-25 23:31N 49°57' W 124°57'4 7.1
2017-Jun-25 23:00N 50°01' W 124°56'2 4.3
2017-Jun-25 22:31N 50°01' W 124°53'2 4.7
2017-Jun-25 22:00N 50°01' W 124°56'3 5.2
2017-Jun-25 21:30N 49°59' W 124°60'3 5.9
2017-Jun-25 21:01N 49°59' W 125°04'3 6.1
2017-Jun-25 20:30N 49°58' W 125°09'2 4.0
2017-Jun-25 20:00N 49°59' W 125°12'4 7.2
2017-Jun-25 19:30N 50°02' W 125°14'5 9.1
2017-Jun-25 19:00N 49°58' W 125°10'4 8.1
2017-Jun-25 18:30N 50°01' W 125°06'1 1.2
2017-Jun-25 18:00N 50°01' W 125°05'510.4
2017-Jun-25 17:30N 49°58' W 124°59'510.2
2017-Jun-25 17:00N 49°54' W 124°54'510.2
2017-Jun-25 16:30N 49°50' W 124°48'510.3
2017-Jun-25 16:00N 49°46' W 124°43'3 5.8
2017-Jun-25 15:31N 49°44' W 124°41'0 0.1
2017-Jun-25 15:01N 49°44' W 124°41'2 4.0
2017-Jun-25 14:30N 49°42' W 124°43'3 3.2
2017-Jun-25 13:30N 49°40' W 124°46'5 9.9
2017-Jun-25 13:00N 49°36' W 124°40'2 3.1
2017-Jun-25 12:30N 49°35' W 124°38'510.1
2017-Jun-25 12:00N 49°39' W 124°33'2 3.6
2017-Jun-25 11:30N 49°38' W 124°31'510.3
2017-Jun-25 11:00N 49°35' W 124°25'3 4.1
2017-Jun-25 10:18N 49°32' W 124°26'2 4.8
2017-Jun-25 09:57N 49°31' W 124°28'2 4.6
2017-Jun-25 09:30N 49°29' W 124°29'1 1.4
2017-Jun-25 08:50N 49°28' W 124°30'1 3.8
2017-Jun-25 08:30N 49°28' W 124°32'510.8
2017-Jun-25 08:00N 49°28' W 124°40'4 7.8
2017-Jun-25 07:30N 49°29' W 124°46'0 0.1
2017-Jun-25 06:57N 49°29' W 124°46'4 7.8
2017-Jun-25 06:25N 49°28' W 124°40'4 9.9
2017-Jun-25 06:00N 49°27' W 124°34'5 9.9
2017-Jun-25 05:28N 49°27' W 124°25'3 7.3
2017-Jun-25 05:00N 49°27' W 124°20'2 3.2
2017-Jun-25 04:24N 49°25' W 124°22'1 2.0
2017-Jun-25 03:56N 49°24' W 124°21'5 9.1
2017-Jun-25 03:24N 49°21' W 124°15'2 4.7
2017-Jun-25 02:57N 49°20' W 124°12'4 7.6
2017-Jun-25 02:22N 49°22' W 124°06'3 2.7
2017-Jun-25 01:13N 49°24' W 124°09'6 4.3
2017-Jun-24 23:43N 49°30' W 124°06'0 0.3
2017-Jun-24 23:13N 49°30' W 124°06'0 0.1
2017-Jun-24 22:45N 49°30' W 124°06'2 9.5
2017-Jun-24 22:30N 49°29' W 124°03'510.4
2017-Jun-24 22:00N 49°26' W 123°56'611.1
2017-Jun-24 21:29N 49°24' W 123°48'2 2.4
2017-Jun-24 20:49N 49°23' W 123°46'2 4.1
2017-Jun-24 20:24N 49°22' W 123°47'3 7.0
2017-Jun-24 20:00N 49°19' W 123°48'0 0.2
2017-Jun-24 19:30N 49°19' W 123°48'3 5.0
2017-Jun-24 18:59N 49°17' W 123°50'2 4.3
2017-Jun-24 18:24N 49°14' W 123°51'3 5.8
2017-Jun-24 17:52N 49°15' W 123°46'1 2.0
2017-Jun-24 17:30N 49°15' W 123°45'0 0.1
2017-Jun-24 17:00N 49°15' W 123°45'2 2.9
2017-Jun-24 16:25N 49°14' W 123°43'4 9.3
2017-Jun-24 15:59N 49°11' W 123°39'2 5.0
2017-Jun-24 15:29N 49°09' W 123°37'0 0.1
2017-Jun-24 14:58N 49°09' W 123°37'3 2.8
2017-Jun-24 14:00N 49°10' W 123°33'5 9.4
2017-Jun-24 13:30N 49°12' W 123°27'0 0.3
2017-Jun-24 13:00N 49°12' W 123°26'2 3.6
2017-Jun-24 12:30N 49°13' W 123°24'2 4.6
2017-Jun-24 12:00N 49°14' W 123°21'610.4
2017-Jun-24 11:24N 49°07' W 123°20'3 7.1
2017-Jun-24 11:00N 49°04' W 123°19'2 4.8
2017-Jun-24 10:30N 49°03' W 123°22'0 0.1
2017-Jun-24 09:45N 49°03' W 123°22'1 3.8
2017-Jun-24 09:30N 49°03' W 123°24'2 2.7
2017-Jun-24 08:45N 49°02' W 123°26'1 2.3
2017-Jun-24 08:30N 49°02' W 123°27'2 4.7
2017-Jun-24 07:59N 49°00' W 123°30'4 7.5
2017-Jun-24 07:24N 48°59' W 123°24'4 9.4
2017-Jun-24 07:00N 48°58' W 123°18'3 4.8
2017-Jun-24 06:26N 48°60' W 123°15'1 2.4
2017-Jun-24 05:59N 48°60' W 123°13'5 9.2
2017-Jun-24 05:26N 48°55' W 123°11'3 7.7
2017-Jun-24 05:00N 48°51' W 123°11'0 0.0
2017-Jun-24 04:30N 48°51' W 123°11'2 4.2
2017-Jun-24 04:00N 48°53' W 123°09'2 4.7
2017-Jun-24 03:30N 48°55' W 123°07'3 4.8
2017-Jun-24 02:58N 48°57' W 123°04'510.0
2017-Jun-24 02:30N 48°57' W 122°57'2 4.1
2017-Jun-24 01:59N 48°57' W 123°00'2 2.8
2017-Jun-24 01:26N 48°55' W 122°60'4 8.2
2017-Jun-24 00:56N 48°52' W 123°03'2 3.6
2017-Jun-24 00:22N 48°50' W 123°05'155915.4
2017-Jun-24 00:12N 49°33' W 126°53'156307.6
2017-Jun-23 23:41N 48°49' W 123°04'3 6.2
2017-Jun-23 23:11N 48°47' W 123°00'1 4.5
2017-Jun-23 22:57N 48°47' W 123°02'2 5.2
2017-Jun-23 22:29N 48°45' W 123°05'3 5.2
2017-Jun-23 22:00N 48°44' W 123°08'4 7.1
2017-Jun-23 21:30N 48°46' W 123°03'3 6.1
2017-Jun-23 21:00N 48°48' W 123°00'6 5.4
2017-Jun-23 19:53N 48°47' W 122°51'5 7.5
2017-Jun-23 19:14N 48°44' W 122°45'2 8.8
2017-Jun-23 19:00N 48°43' W 122°44'4 7.3
2017-Jun-23 18:30N 48°39' W 122°43'3 6.1
2017-Jun-23 18:00N 48°36' W 122°45'3 5.7
2017-Jun-23 17:30N 48°33' W 122°45'3 6.0
2017-Jun-23 17:00N 48°30' W 122°44'3 5.6
2017-Jun-23 16:30N 48°27' W 122°44'2 3.0
2017-Jun-23 15:54N 48°26' W 122°45'2 4.9
2017-Jun-23 15:26N 48°24' W 122°48'3 7.3
2017-Jun-23 14:59N 48°24' W 122°53'7 6.5
2017-Jun-23 13:57N 48°23' W 123°03'3 5.8
2017-Jun-23 13:30N 48°21' W 122°59'7 9.4
2017-Jun-23 12:48N 48°15' W 122°59'0 0.6
2017-Jun-23 12:30N 48°15' W 122°58'2 4.3
2017-Jun-23 12:00N 48°14' W 123°02'3 6.3
2017-Jun-23 11:30N 48°13' W 123°06'4 7.6
2017-Jun-23 11:00N 48°16' W 123°10'2 4.5
2017-Jun-23 10:30N 48°18' W 123°12'3 6.7
2017-Jun-23 10:00N 48°20' W 123°15'3 6.4
2017-Jun-23 09:30N 48°23' W 123°18'3 6.4
2017-Jun-23 09:00N 48°20' W 123°18'5 9.3
2017-Jun-23 08:30N 48°15' W 123°17'1 2.7
2017-Jun-23 08:00N 48°14' W 123°18'3 5.7
2017-Jun-23 07:29N 48°11' W 123°19'3 7.1
2017-Jun-23 07:00N 48°11' W 123°24'510.6
2017-Jun-23 06:30N 48°12' W 123°32'5 9.9
2017-Jun-23 06:00N 48°12' W 123°39'2 4.6
2017-Jun-23 05:29N 48°13' W 123°43'3 5.8
2017-Jun-23 05:00N 48°16' W 123°43'3 5.8
2017-Jun-23 04:30N 48°18' W 123°43'2 3.8
2017-Jun-23 03:59N 48°20' W 123°46'4 9.2
2017-Jun-23 03:30N 48°21' W 123°52'5 9.3
2017-Jun-23 03:00N 48°22' W 123°59'2 3.9
2017-Jun-23 02:30N 48°21' W 124°01'3 6.0
2017-Jun-23 02:00N 48°19' W 124°04'0 0.1
2017-Jun-23 01:30N 48°19' W 124°04'4 7.9
2017-Jun-23 01:00N 48°15' W 124°07'2 3.6
2017-Jun-23 00:30N 48°16' W 124°09'510.1
2017-Jun-23 00:00N 48°18' W 124°16'5 9.7
2017-Jun-22 23:30N 48°21' W 124°22'510.0
2017-Jun-22 23:00N 48°23' W 124°29'4 8.8
2017-Jun-22 22:30N 48°25' W 124°35'1 1.3
2017-Jun-22 22:00N 48°25' W 124°36'3 5.8
2017-Jun-22 21:30N 48°28' W 124°33'1 1.4
2017-Jun-22 21:00N 48°28' W 124°33'3 6.4
2017-Jun-22 20:30N 48°31' W 124°30'1 1.1
2017-Jun-22 20:00N 48°32' W 124°30'1 1.4
2017-Jun-22 19:30N 48°31' W 124°32'510.0
2017-Jun-22 19:00N 48°32' W 124°39'3 5.5
2017-Jun-22 18:30N 48°33' W 124°43'2 4.9
2017-Jun-22 18:00N 48°31' W 124°43'1 1.7
2017-Jun-22 17:31N 48°30' W 124°44'0 0.2
2017-Jun-22 17:00N 48°30' W 124°44'3 5.3
2017-Jun-22 16:30N 48°27' W 124°45'2 4.0
2017-Jun-22 16:00N 48°25' W 124°45'0 0.1
2017-Jun-22 15:30N 48°25' W 124°45'0 0.1
2017-Jun-22 14:59N 48°25' W 124°45'4 4.2
2017-Jun-22 14:00N 48°27' W 124°39'510.4
2017-Jun-22 13:30N 48°27' W 124°32'510.8
2017-Jun-22 13:00N 48°26' W 124°24'1041622.9
2017-Jun-22 12:57N 49°21' W 126°39'110251.9
2017-Jun-22 12:30N 48°24' W 124°16'1065435.1
2017-Jun-22 12:29N 49°18' W 126°34'111231.5
2017-Jun-22 12:00N 48°22' W 124°08'10738398.4
2017-Jun-22 12:00N 49°16' W 126°28'5 9.8
2017-Jun-22 11:30N 49°13' W 126°22'1082770.2
2017-Jun-22 11:28N 48°20' W 123°59'103224.7
2017-Jun-22 11:00N 49°10' W 126°16'1083245.4
2017-Jun-22 10:58N 48°18' W 123°52'510.7
2017-Jun-22 10:30N 48°17' W 123°44'10812563.2
2017-Jun-22 10:30N 49°07' W 126°10'5 9.7
2017-Jun-22 10:00N 49°04' W 126°04'10819483.5
2017-Jun-22 10:00N 48°16' W 123°37'103209.3
2017-Jun-22 09:30N 49°01' W 125°58'5 9.6
2017-Jun-22 09:00N 48°58' W 125°52'10441405.4
2017-Jun-22 09:00N 48°20' W 123°27'99198.7
2017-Jun-22 08:30N 48°56' W 125°46'10019035.9
2017-Jun-22 08:30N 48°23' W 123°22'96193.7
2017-Jun-22 08:00N 48°53' W 125°40'10017910.6
2017-Jun-22 08:00N 48°24' W 123°16'95192.2
2017-Jun-22 07:30N 48°50' W 125°34'97349987.7
2017-Jun-22 07:30N 48°26' W 123°12'93185.3
2017-Jun-22 07:00N 48°47' W 125°28'9417731.2
2017-Jun-22 07:00N 48°29' W 123°09'89179.6
2017-Jun-22 06:30N 48°44' W 125°22'8831704.3
2017-Jun-22 06:30N 48°31' W 123°11'3 6.8
2017-Jun-22 06:00N 48°34' W 123°13'81807.0
2017-Jun-22 05:54N 48°42' W 125°15'80200.7
2017-Jun-22 05:30N 48°36' W 123°14'762306.7
2017-Jun-22 05:28N 48°40' W 125°09'76162.0
2017-Jun-22 05:00N 48°38' W 123°15'71256096.5
2017-Jun-22 05:00N 48°38' W 125°02'71142.4
2017-Jun-22 04:30N 48°38' W 123°15'62124.1
2017-Jun-22 04:00N 48°34' W 124°48'510.3
2017-Jun-22 03:30N 48°32' W 124°41'55109.6
2017-Jun-22 03:00N 48°45' W 123°20'51185313.2
2017-Jun-22 03:00N 48°31' W 124°35'4693.0
2017-Jun-22 02:30N 48°43' W 123°27'4376974.1
2017-Jun-22 02:30N 48°30' W 124°29'4 8.4
2017-Jun-22 02:00N 48°29' W 124°23'3773.4
2017-Jun-22 01:31N 48°39' W 123°30'3440317.3
2017-Jun-22 01:30N 48°27' W 124°17'4 8.4
2017-Jun-22 01:00N 48°25' W 124°11'321798.4
2017-Jun-22 00:59N 48°39' W 123°27'3160.6
2017-Jun-22 00:29N 48°23' W 124°06'31713.2
2017-Jun-22 00:26N 48°39' W 123°27'2965.9
2017-Jun-22 00:00N 48°21' W 124°01'291910.6
2017-Jun-21 23:59N 48°39' W 123°27'2755.5
2017-Jun-21 23:30N 48°20' W 123°56'271865.0
2017-Jun-21 23:29N 48°39' W 123°27'0 0.0
2017-Jun-21 22:59N 48°39' W 123°27'251188.7
2017-Jun-21 22:58N 48°19' W 123°49'2552.4
2017-Jun-21 22:29N 48°39' W 123°27'242337.4
2017-Jun-21 22:29N 48°18' W 123°44'4 7.7
2017-Jun-21 22:00N 48°17' W 123°39'23346.2
2017-Jun-21 21:56N 48°39' W 123°27'2353.1
2017-Jun-21 21:30N 48°16' W 123°32'232475.4
2017-Jun-21 21:29N 48°39' W 123°27'2143.5
2017-Jun-21 21:00N 48°18' W 123°28'211161.8
2017-Jun-21 20:59N 48°39' W 123°27'1734.2
2017-Jun-21 20:30N 48°23' W 123°24'171396.7
2017-Jun-21 20:29N 48°39' W 123°27'1736.2
2017-Jun-21 20:00N 48°23' W 123°18'17965.7
2017-Jun-21 19:59N 48°39' W 123°27'1736.1
2017-Jun-21 19:30N 48°24' W 123°14'17147.3
2017-Jun-21 19:23N 48°39' W 123°27'1539.3
2017-Jun-21 19:00N 48°28' W 123°12'15831.3
2017-Jun-21 18:59N 48°39' W 123°27'1122.7
2017-Jun-21 18:30N 48°33' W 123°13'11668.4
2017-Jun-21 18:29N 48°39' W 123°27'816.5
2017-Jun-21 18:00N 48°39' W 123°15'8455.6
2017-Jun-21 17:59N 48°39' W 123°27'816.7
2017-Jun-21 17:30N 48°44' W 123°17'8468.8
2017-Jun-21 17:29N 48°39' W 123°27'510.7
2017-Jun-21 17:00N 48°44' W 123°24'5282.6
2017-Jun-21 16:59N 48°39' W 123°27'2 5.1
2017-Jun-21 16:30N 48°41' W 123°30'2137.4
2017-Jun-21 16:29N 48°39' W 123°27'0 0.0
2017-Jun-21 15:59N 48°39' W 123°27'014.8
2017-Jun-21 15:59N 48°39' W 123°27'0 0.1
2017-Jun-21 15:29N 48°39' W 123°27'013.8
2017-Jun-21 15:29N 48°39' W 123°27'0 0.1
2017-Jun-21 14:59N 48°39' W 123°27'012.9
2017-Jun-21 14:59N 48°39' W 123°27'0 0.1
2017-Jun-21 13:59N 48°39' W 123°27'013.8
2017-Jun-21 13:59N 48°39' W 123°27'0 0.1
2017-Jun-21 13:29N 48°39' W 123°27'013.8
2017-Jun-21 13:29N 48°39' W 123°27'0 0.1
2017-Jun-21 12:59N 48°39' W 123°27'013.8
2017-Jun-21 12:59N 48°39' W 123°27'0 0.1
2017-Jun-21 12:29N 48°39' W 123°27'014.8
2017-Jun-21 12:29N 48°39' W 123°27'0 0.1
2017-Jun-21 11:59N 48°39' W 123°27'014.8
2017-Jun-21 11:59N 48°39' W 123°27'0 0.1
2017-Jun-21 11:29N 48°39' W 123°27'016.1
2017-Jun-21 11:29N 48°39' W 123°27'0 0.1
2017-Jun-21 10:59N 48°39' W 123°27'012.9
2017-Jun-21 10:59N 48°39' W 123°27'0 0.1
2017-Jun-21 10:29N 48°39' W 123°27'013.8
2017-Jun-21 10:29N 48°39' W 123°27'0 0.1
2017-Jun-21 09:59N 48°39' W 123°27'013.8
2017-Jun-21 09:59N 48°39' W 123°27'0 0.1
2017-Jun-21 09:29N 48°39' W 123°27'016.1
2017-Jun-21 09:29N 48°39' W 123°27'0 0.0
2017-Jun-21 08:59N 48°39' W 123°27'0 0.6
2017-Jun-21 08:53N 48°39' W 123°27'0 0.0
2017-Jun-21 08:29N 48°39' W 123°27'013.8
2017-Jun-21 08:29N 48°39' W 123°27'0 0.1
2017-Jun-21 07:59N 48°39' W 123°27'013.8
2017-Jun-21 07:59N 48°39' W 123°27'0 0.1
2017-Jun-21 07:29N 48°39' W 123°27'016.1
2017-Jun-21 07:29N 48°39' W 123°27'0 0.1
2017-Jun-21 06:59N 48°39' W 123°27'0 1.0
2017-Jun-21 06:56N 48°39' W 123°27'0 0.1
2017-Jun-21 06:29N 48°39' W 123°27'0 1.0
2017-Jun-21 06:26N 48°39' W 123°27'0 0.1
2017-Jun-21 05:59N 48°39' W 123°27'013.8
2017-Jun-21 05:59N 48°39' W 123°27'0 0.1
2017-Jun-21 05:29N 48°39' W 123°27'016.1
2017-Jun-21 05:29N 48°39' W 123°27'0 0.0
2017-Jun-21 04:59N 48°39' W 123°27'0 0.4
2017-Jun-21 04:50N 48°39' W 123°27'0 0.0
2017-Jun-21 04:29N 48°39' W 123°27'014.8
2017-Jun-21 04:29N 48°39' W 123°27'0 0.0
2017-Jun-21 03:59N 48°39' W 123°27'0 1.2
2017-Jun-21 03:56N 48°39' W 123°27'0 0.0
2017-Jun-21 03:29N 48°39' W 123°27'012.9
2017-Jun-21 03:29N 48°39' W 123°27'0 0.0
2017-Jun-21 02:59N 48°39' W 123°27'0 1.2
2017-Jun-21 02:56N 48°39' W 123°27'0 0.0
2017-Jun-21 02:29N 48°39' W 123°27'012.0
2017-Jun-21 02:29N 48°39' W 123°27'0 0.1
2017-Jun-21 01:59N 48°39' W 123°27'014.8
2017-Jun-21 01:59N 48°39' W 123°27'0 0.1
2017-Jun-21 01:29N 48°39' W 123°27'016.1
2017-Jun-21 01:29N 48°39' W 123°27'0 0.1
2017-Jun-21 00:59N 48°39' W 123°27'013.8
2017-Jun-21 00:59N 48°39' W 123°27'0 0.1
2017-Jun-21 00:29N 48°39' W 123°27'013.8
2017-Jun-21 00:29N 48°39' W 123°27'0 0.1
2017-Jun-20 23:59N 48°39' W 123°27'016.1
2017-Jun-20 23:59N 48°39' W 123°27'0 0.1
2017-Jun-20 23:29N 48°39' W 123°27'014.8
2017-Jun-20 23:29N 48°39' W 123°27'0 0.1
2017-Jun-20 22:59N 48°39' W 123°27'014.8
2017-Jun-20 22:59N 48°39' W 123°27'0 0.1
2017-Jun-20 22:29N 48°39' W 123°27'014.8
2017-Jun-20 22:29N 48°39' W 123°27'0 0.1
2017-Jun-20 21:59N 48°39' W 123°27'012.9
2017-Jun-20 21:59N 48°39' W 123°27'0 0.1
2017-Jun-20 21:29N 48°39' W 123°27'016.1
2017-Jun-20 21:29N 48°39' W 123°27'0 0.1
2017-Jun-20 20:59N 48°39' W 123°27'014.8
2017-Jun-20 20:59N 48°39' W 123°27'0 0.1
2017-Jun-20 20:29N 48°39' W 123°27'013.8
2017-Jun-20 20:29N 48°39' W 123°27'0 0.1
2017-Jun-20 19:59N 48°39' W 123°27'012.9
2017-Jun-20 19:59N 48°39' W 123°27'0 0.1
2017-Jun-20 19:29N 48°39' W 123°27'013.8
2017-Jun-20 19:29N 48°39' W 123°27'0 0.1
2017-Jun-20 18:59N 48°39' W 123°27'017.5
2017-Jun-20 18:59N 48°39' W 123°27'0 0.1
2017-Jun-20 18:29N 48°39' W 123°27'013.8
2017-Jun-20 18:29N 48°39' W 123°27'0 0.0
2017-Jun-20 17:59N 48°39' W 123°27'0 0.6
2017-Jun-20 17:53N 48°39' W 123°27'0 0.0
2017-Jun-20 17:29N 48°39' W 123°27'014.8
2017-Jun-20 17:29N 48°39' W 123°27'0 0.1
2017-Jun-20 16:59N 48°39' W 123°27'013.8
2017-Jun-20 16:59N 48°39' W 123°27'0 0.0
2017-Jun-20 16:29N 48°39' W 123°27'0 1.2
2017-Jun-20 16:26N 48°39' W 123°27'0 0.0
2017-Jun-20 15:59N 48°39' W 123°27'012.9
2017-Jun-20 15:59N 48°39' W 123°27'0 0.1
2017-Jun-20 15:29N 48°39' W 123°27'024.1
2017-Jun-20 15:29N 48°39' W 123°27'0 0.0
2017-Jun-20 14:59N 48°39' W 123°27'0 1.2
2017-Jun-20 14:56N 48°39' W 123°27'0 0.1
2017-Jun-20 14:29N 48°39' W 123°27'1 2.4
2017-Jun-20 14:00N 48°39' W 123°29'1 1.8
2017-Jun-20 13:30N 48°40' W 123°30'291.2
2017-Jun-20 13:29N 48°39' W 123°27'2 4.2
2017-Jun-20 13:00N 48°40' W 123°30'292.3
2017-Jun-20 12:59N 48°39' W 123°27'2 4.3
2017-Jun-20 12:30N 48°40' W 123°30'292.0
2017-Jun-20 12:29N 48°39' W 123°27'2 4.2
2017-Jun-20 12:00N 48°39' W 123°30'292.5
2017-Jun-20 11:59N 48°39' W 123°27'2 4.7
2017-Jun-20 11:31N 48°40' W 123°30'299.3
2017-Jun-20 11:29N 48°39' W 123°27'2 4.7
2017-Jun-20 11:00N 48°40' W 123°30'2101.3
2017-Jun-20 10:59N 48°39' W 123°27'2 4.5
2017-Jun-20 10:30N 48°40' W 123°30'297.5
2017-Jun-20 10:29N 48°39' W 123°27'2 4.3
2017-Jun-20 10:00N 48°40' W 123°30'230.9
2017-Jun-20 09:56N 48°39' W 123°27'2 4.8
2017-Jun-20 09:30N 48°39' W 123°30'290.4
2017-Jun-20 09:29N 48°39' W 123°27'3 5.8
2017-Jun-20 09:00N 48°41' W 123°30'3125.2
2017-Jun-20 08:59N 48°39' W 123°27'511.1
2017-Jun-20 08:30N 48°44' W 123°24'5238.5
2017-Jun-20 08:29N 48°39' W 123°27'917.8
2017-Jun-20 08:00N 48°44' W 123°16'9421.5
2017-Jun-20 07:59N 48°39' W 123°27'817.7
2017-Jun-20 07:30N 48°39' W 123°14'8386.6
2017-Jun-20 07:29N 48°39' W 123°27'1123.5
2017-Jun-20 07:00N 48°34' W 123°12'11525.4
2017-Jun-20 06:59N 48°39' W 123°27'1633.7
2017-Jun-20 06:30N 48°28' W 123°09'16221.1
2017-Jun-20 06:26N 48°39' W 123°27'1843.0
2017-Jun-20 06:00N 48°23' W 123°13'18827.3
2017-Jun-20 05:59N 48°39' W 123°27'1734.5
2017-Jun-20 05:30N 48°23' W 123°22'172107.4
2017-Jun-20 05:29N 48°39' W 123°27'1429.0
2017-Jun-20 05:00N 48°25' W 123°27'141772.7
2017-Jun-20 04:59N 48°39' W 123°27'0 0.0
2017-Jun-20 04:29N 48°39' W 123°27'171489.3
2017-Jun-20 04:28N 48°22' W 123°29'2 3.6
2017-Jun-20 04:00N 48°23' W 123°27'16701.3
2017-Jun-20 03:59N 48°39' W 123°27'1427.6
2017-Jun-20 03:29N 48°26' W 123°27'142451.4
2017-Jun-20 03:29N 48°39' W 123°27'1633.0
2017-Jun-20 03:00N 48°23' W 123°25'16718.4
2017-Jun-20 02:59N 48°39' W 123°27'1735.6
2017-Jun-20 02:30N 48°22' W 123°24'17785.9
2017-Jun-20 02:29N 48°39' W 123°27'1633.4
2017-Jun-20 02:00N 48°24' W 123°20'16701.8
2017-Jun-20 01:59N 48°39' W 123°27'1836.8
2017-Jun-20 01:30N 48°22' W 123°20'18801.6
2017-Jun-20 01:29N 48°39' W 123°27'2041.8
2017-Jun-20 01:01N 48°20' W 123°20'20865.5
2017-Jun-20 00:59N 48°39' W 123°27'1838.5
2017-Jun-20 00:30N 48°22' W 123°19'18837.1
2017-Jun-20 00:29N 48°39' W 123°27'1734.8
2017-Jun-20 00:00N 48°24' W 123°19'17750.1
2017-Jun-19 23:59N 48°39' W 123°27'1939.9
2017-Jun-19 23:30N 48°21' W 123°19'19879.4
2017-Jun-19 23:29N 48°39' W 123°27'1940.5
2017-Jun-19 23:00N 48°21' W 123°16'19882.1
2017-Jun-19 22:59N 48°39' W 123°27'1735.1
2017-Jun-19 22:30N 48°26' W 123°12'17745.3
2017-Jun-19 22:29N 48°39' W 123°27'1225.0
2017-Jun-19 22:00N 48°32' W 123°13'12531.6
2017-Jun-19 21:59N 48°39' W 123°27'817.6
2017-Jun-19 21:31N 48°37' W 123°15'8378.5
2017-Jun-19 21:29N 48°39' W 123°27'816.9
2017-Jun-19 21:01N 48°43' W 123°16'8362.5
2017-Jun-19 20:59N 48°39' W 123°27'919.4
2017-Jun-19 20:31N 48°47' W 123°21'9417.3
2017-Jun-19 20:29N 48°39' W 123°27'0 0.0
2017-Jun-19 19:59N 48°39' W 123°27'0 0.0
2017-Jun-19 19:29N 48°39' W 123°27'171562.4
2017-Jun-19 19:28N 48°56' W 123°20'510.3
2017-Jun-19 19:00N 48°60' W 123°25'211758.9
2017-Jun-19 18:59N 48°39' W 123°27'2450.4
2017-Jun-19 18:30N 49°03' W 123°30'241263.6
2017-Jun-19 18:29N 48°39' W 123°27'0 0.0
2017-Jun-19 17:59N 48°39' W 123°27'291226.0
2017-Jun-19 17:58N 49°07' W 123°35'2959.9
2017-Jun-19 17:29N 48°39' W 123°27'0 0.0
2017-Jun-19 16:59N 48°39' W 123°27'0 0.0
2017-Jun-19 16:26N 48°39' W 123°27'0 0.0
2017-Jun-19 15:59N 48°39' W 123°27'0 0.0
2017-Jun-19 15:29N 48°39' W 123°27'0 0.0
2017-Jun-19 14:59N 48°39' W 123°27'2 1.9
2017-Jun-19 14:01N 48°40' W 123°30'2147.7
2017-Jun-19 14:00N 48°42' W 123°30'0 0.7 330 / 11019.3 14.613.3
2017-Jun-19 13:30N 48°42' W 123°30'66482.0
2017-Jun-19 13:22N 49°32' W 124°34'66182.9
2017-Jun-19 13:01N 48°43' W 123°25'294.7
2017-Jun-19 13:00N 48°42' W 123°24'75299.6 360 / 51019.6 13.913.4
2017-Jun-19 12:44N 49°38' W 124°41'74317.7
2017-Jun-19 12:31N 48°45' W 123°22'77275919.8
2017-Jun-19 12:30N 49°40' W 124°44'79158.5
2017-Jun-19 12:01N 48°44' W 123°17'8414458.1
2017-Jun-19 12:00N 49°43' W 124°49'857884.7
2017-Jun-19 12:00N 48°42' W 123°18'3 5.4 340 / 121019.0 13.613.3
2017-Jun-19 11:31N 48°41' W 123°15'941288.7
2017-Jun-19 11:26N 49°47' W 124°55'97227.9
2017-Jun-19 11:00N 48°36' W 123°13'10236819.1
2017-Jun-19 11:00N 49°51' W 125°00'1037580.9
2017-Jun-19 11:00N 48°36' W 123°12'4 7.3 340 / 111019.7 13.012.6
2017-Jun-19 10:30N 48°33' W 123°11'1123140.4
2017-Jun-19 10:28N 49°55' W 125°06'4 9.7
2017-Jun-19 10:00N 49°58' W 125°11'120216417.3
2017-Jun-19 10:00N 48°28' W 123°10'3161.3
2017-Jun-19 10:00N 48°30' W 123°12'612.4 330 / 151019.5 12.912.6
2017-Jun-19 09:30N 48°24' W 123°12'126452566.6
2017-Jun-19 09:30N 50°02' W 125°13'4 8.2
2017-Jun-19 09:00N 50°05' W 125°17'12942160.3
2017-Jun-19 09:00N 48°22' W 123°19'2154.9
2017-Jun-19 09:00N 48°24' W 123°18'132272.9 360 / 81020.7 14.313.9
2017-Jun-19 08:30N 50°09' W 125°21'13343651.2
2017-Jun-19 08:30N 48°19' W 123°24'510.0
2017-Jun-19 08:00N 48°15' W 123°28'13855356.6
2017-Jun-19 08:00N 50°12' W 125°22'13610174.7
2017-Jun-19 08:00N 48°18' W 123°30'5 9.3 120 / 61020.7 13.613.2
2017-Jun-19 07:30N 48°17' W 123°37'13845019.9
2017-Jun-19 07:30N 50°15' W 125°23'135262.5
2017-Jun-19 07:00N 48°18' W 123°42'139499143.2 140 / 101021.4 12.512.2
2017-Jun-19 06:59N 50°19' W 125°25'13815968.2
2017-Jun-19 06:59N 48°18' W 123°45'510.1
2017-Jun-19 06:30N 48°19' W 123°52'5 9.4
2017-Jun-19 06:00N 48°19' W 123°59'4335.0
2017-Jun-19 06:00N 48°18' W 123°54'612.2 120 / 71021.8 12.311.9
2017-Jun-19 05:30N 48°20' W 124°02'510.8
2017-Jun-19 05:00N 48°23' W 124°10'2196.1
2017-Jun-19 05:00N 48°24' W 124°12'3 7.1 110 / 71021.7 12.311.9
2017-Jun-19 04:30N 48°25' W 124°17'510.6
2017-Jun-19 04:00N 48°27' W 124°24'3365.9
2017-Jun-19 04:00N 48°30' W 124°24'1242962.5 100 / 71021.5 12.512.1
2017-Jun-19 03:57N 50°22' W 125°46'123277.6
2017-Jun-19 03:30N 48°29' W 124°32'611.5
2017-Jun-19 03:00N 48°32' W 124°40'2146.0
2017-Jun-19 03:00N 48°30' W 124°42'510.8 110 / 101021.3 13.512.7
2017-Jun-19 02:30N 48°34' W 124°48'510.8
2017-Jun-19 02:00N 48°34' W 124°56'2216.8
2017-Jun-19 02:00N 48°36' W 124°54'713.8 110 / 111021.3 12.912.6
2017-Jun-19 01:30N 48°34' W 125°04'611.3
2017-Jun-19 01:00N 48°36' W 125°12'311.4 120 / 131021.5 12.812.5
2017-Jun-19 00:45N 48°34' W 125°15'3 9.1
2017-Jun-19 00:27N 48°34' W 125°19'4 8.0
2017-Jun-19 00:00N 48°34' W 125°25'2114.6
2017-Jun-19 00:00N 48°36' W 125°24'510.6 120 / 91021.9 12.812.5
2017-Jun-18 23:30N 48°35' W 125°32'4 8.5
2017-Jun-18 23:00N 48°35' W 125°38'295.7
2017-Jun-18 23:00N 48°36' W 125°36'612.2 130 / 101021.8 12.812.4
2017-Jun-18 22:30N 48°36' W 125°45'5 9.7
2017-Jun-18 22:00N 48°36' W 125°52'170.2
2017-Jun-18 22:00N 48°36' W 125°54'4 7.9 140 / 91021.6 13.313.0
2017-Jun-18 21:30N 48°36' W 125°60'510.1
2017-Jun-18 21:00N 48°37' W 126°07'197.0
2017-Jun-18 21:00N 48°36' W 126°06'612.2 160 / 91021.0 13.613.2
2017-Jun-18 20:28N 48°37' W 126°15'612.3
2017-Jun-18 20:00N 48°36' W 126°24'8 7.9 180 / 91020.7 13.413.1
2017-Jun-18 19:00N 48°36' W 126°36'7 7.2 210 / 101020.3 13.212.9
2017-Jun-18 18:00N 48°42' W 126°42'8 7.9 210 / 111019.5 13.212.8
2017-Jun-18 17:00N 48°42' W 126°54'1211.9 180 / 121018.6 13.012.7
2017-Jun-18 16:00N 48°42' W 127°12'167240.9 200 / 121018.1 12.912.6
2017-Jun-18 15:18N 51°27' W 127°51'165536.0
2017-Jun-18 15:00N 48°42' W 127°30'1694681.8 210 / 101017.3 12.912.5
2017-Jun-18 14:57N 51°30' W 127°52'1010.9
2017-Jun-18 14:00N 51°41' W 127°55'17910898.8
2017-Jun-18 14:00N 48°42' W 127°48'184380.5 220 / 131017.1 12.912.6
2017-Jun-18 13:30N 51°46' W 127°57'611.1
2017-Jun-18 13:01N 51°51' W 127°57'18311009.1
2017-Jun-18 13:00N 48°48' W 128°00'189376.5 220 / 141016.4 12.912.5
2017-Jun-18 12:29N 51°57' W 127°56'511.2
2017-Jun-18 12:00N 52°03' W 127°56'19522673.0
2017-Jun-18 12:00N 48°48' W 128°18'197342.0 220 / 131016.1 12.812.4
2017-Jun-18 11:25N 52°04' W 128°03'198464.8
2017-Jun-18 11:00N 48°48' W 128°36'20014126.8 220 / 131015.8 12.812.4
2017-Jun-18 10:59N 52°07' W 128°08'6 7.0
2017-Jun-18 10:08N 52°13' W 128°09'2071476.2
2017-Jun-18 10:00N 48°48' W 128°48'20710639.9 210 / 131015.4 12.712.3
2017-Jun-18 09:58N 52°14' W 128°12'510.1
2017-Jun-18 09:30N 52°15' W 128°19'5 9.8
2017-Jun-18 09:00N 52°16' W 128°27'20968456.6
2017-Jun-18 09:00N 48°48' W 129°06'214403.1 200 / 121015.0 12.612.2
2017-Jun-18 08:28N 52°21' W 128°31'209444.9
2017-Jun-18 08:00N 48°54' W 129°18'21485414.7 190 / 121014.4 12.612.2
2017-Jun-18 07:59N 52°25' W 128°29'216216.0
2017-Jun-18 07:00N 48°54' W 129°36'8 7.9 170 / 141014.4 12.612.3
2017-Jun-18 06:00N 48°54' W 129°48'8 7.9 120 / 251013.1 12.111.7
2017-Jun-18 05:00N 48°54' W 130°00'8 7.9 120 / 251013.3 11.811.4
2017-Jun-18 04:00N 48°54' W 130°12'1211.8 120 / 261013.6 11.411.0
2017-Jun-18 03:00N 48°54' W 130°30'8 7.9 120 / 261013.6 11.310.8
2017-Jun-18 02:00N 48°54' W 130°42'8 7.9 120 / 261013.5 11.210.6
2017-Jun-18 01:00N 48°54' W 130°54'7 7.2 120 / 261014.8 11.110.4
2017-Jun-18 00:00N 49°00' W 131°00'10 9.9 120 / 241014.6 11.210.1
2017-Jun-17 23:00N 49°06' W 131°12'1313.2 120 / 241015.5 11.3 9.5
2017-Jun-17 22:00N 49°12' W 131°30'8 7.8 120 / 221016.0 11.1 9.5
2017-Jun-17 21:00N 49°12' W 131°42'10 9.9 120 / 211016.1 10.9 8.6
2017-Jun-17 20:00N 49°18' W 131°54'1313.2 120 / 231016.2 11.0 8.1
2017-Jun-17 19:00N 49°24' W 132°12'8 7.8 120 / 211016.6 10.8 8.5
2017-Jun-17 18:00N 49°24' W 132°24'10 9.8 130 / 201016.9 11.0 9.2
2017-Jun-17 17:00N 49°30' W 132°36'10 9.8 130 / 181017.2 10.7 8.5
2017-Jun-17 16:00N 49°36' W 132°48'1211.7 130 / 171017.6 10.8 9.1
2017-Jun-17 15:00N 49°36' W 133°06'8 7.8 130 / 171017.0 10.8 9.2
2017-Jun-17 14:00N 49°36' W 133°18'1313.1 130 / 161017.2 10.7 9.2
2017-Jun-17 13:00N 49°42' W 133°36'1211.6 130 / 171017.2 10.7 9.1
2017-Jun-17 12:00N 49°42' W 133°54'8 7.8 130 / 171017.6 10.8 8.8
2017-Jun-17 11:00N 49°42' W 134°06'1211.6 130 / 161018.1 10.8 8.8
2017-Jun-17 10:00N 49°42' W 134°24'8 7.8 140 / 151018.1 10.9 9.2
2017-Jun-17 09:00N 49°42' W 134°36'1313.1 140 / 161018.2 11.0 8.6
2017-Jun-17 08:00N 49°48' W 134°54'8 7.7 150 / 161018.6 11.0 8.6
2017-Jun-17 07:00N 49°48' W 135°06'1211.6 140 / 141019.0 11.0 8.5
2017-Jun-17 06:00N 49°48' W 135°24'1211.6 140 / 141018.6 11.1 8.3
2017-Jun-17 05:00N 49°48' W 135°42'8 7.7 140 / 141018.8 11.1 7.8
2017-Jun-17 04:00N 49°48' W 135°54'1211.6 150 / 131018.7 11.0 8.3
2017-Jun-17 03:00N 49°48' W 136°12'10 9.8 150 / 131018.8 11.0 8.6
2017-Jun-17 02:00N 49°54' W 136°24'1211.6 150 / 141018.8 10.9 8.5
2017-Jun-17 01:00N 49°54' W 136°42'8 7.7 150 / 131018.8 10.8 8.6
2017-Jun-17 00:00N 49°54' W 136°54'   150 / 131018.7 10.8 8.3
Track history (hours):
 
Tides and Currents Weather Stations Pressure Air Temp Water Temp Dewpoint Dewpoint Depression Visibility Wind Speed Wind Dir Waves Ship Positions

Oceanographic research ship John P. Tully (Canada)

Detailed information on ship capabilities available from University of Delaware's Ocean Information Center.

Last reported at 2017-Jun-26 23:04 UTC. Time now 2017-Jun-27 00:19 UTC.
Position N 48°39' W 123°27'.

Length 68.9 m; beam 14.5 m; draft 4.5 m.

MMSI: 316114000.

Date/timePositionNaut miles runAvg speedWind from/ knotsBaromVisibWave heightAir tempDewpointWater temp
2017-Jun-26 23:04N 48°39' W 123°27'0 0.0
2017-Jun-26 22:55N 48°39' W 123°27'3 5.3
2017-Jun-26 22:25N 48°41' W 123°30'4 9.9
2017-Jun-26 22:00N 48°43' W 123°25'2 3.1
2017-Jun-26 21:26N 48°45' W 123°23'2 4.8
2017-Jun-26 21:01N 48°46' W 123°21'5 8.2
2017-Jun-26 20:22N 48°51' W 123°21'13 8.9
2017-Jun-26 18:51N 49°04' W 123°24'811.1
2017-Jun-26 18:09N 49°12' W 123°26'0 0.1
2017-Jun-26 17:59N 49°12' W 123°26'0 0.0
2017-Jun-26 17:30N 49°12' W 123°26'710.2
2017-Jun-26 16:50N 49°13' W 123°37'9 5.5
2017-Jun-26 15:16N 49°17' W 123°48'2 5.8
2017-Jun-26 14:53N 49°19' W 123°48'1 2.7
2017-Jun-26 14:28N 49°20' W 123°47'7 6.5
2017-Jun-26 13:27N 49°26' W 123°43'1 1.4
2017-Jun-26 12:35N 49°25' W 123°45'1 0.6
2017-Jun-26 10:13N 49°24' W 123°46'2 9.1
2017-Jun-26 09:59N 49°25' W 123°49'5 9.6
2017-Jun-26 09:29N 49°26' W 123°56'8 9.7
2017-Jun-26 08:41N 49°31' W 124°05'2 9.7
2017-Jun-26 08:30N 49°33' W 124°07'510.5
2017-Jun-26 07:59N 49°37' W 124°12'4 9.4
2017-Jun-26 07:30N 49°40' W 124°16'0 0.2
2017-Jun-26 07:00N 49°40' W 124°16'0 0.0
2017-Jun-26 06:30N 49°40' W 124°16'1 2.5
2017-Jun-26 06:01N 49°41' W 124°18'510.1
2017-Jun-26 05:30N 49°44' W 124°24'5 9.9
2017-Jun-26 05:01N 49°46' W 124°31'2 3.1
2017-Jun-26 04:30N 49°47' W 124°33'4 8.6
2017-Jun-26 04:00N 49°49' W 124°38'510.4
2017-Jun-26 03:31N 49°50' W 124°46'510.1
2017-Jun-26 03:00N 49°51' W 124°54'5 9.7
2017-Jun-26 02:31N 49°52' W 125°02'1 2.6
2017-Jun-26 02:00N 49°53' W 125°00'1 1.1
2017-Jun-26 01:30N 49°53' W 124°60'0 0.1
2017-Jun-26 01:00N 49°53' W 124°60'0 0.1
2017-Jun-26 00:31N 49°53' W 124°60'4 7.2
2017-Jun-26 00:00N 49°55' W 124°55'2 4.4
2017-Jun-25 23:31N 49°57' W 124°57'4 7.1
2017-Jun-25 23:00N 50°01' W 124°56'2 4.3
2017-Jun-25 22:31N 50°01' W 124°53'2 4.7
2017-Jun-25 22:00N 50°01' W 124°56'3 5.2
2017-Jun-25 21:30N 49°59' W 124°60'3 5.9
2017-Jun-25 21:01N 49°59' W 125°04'3 6.1
2017-Jun-25 20:30N 49°58' W 125°09'2 4.0
2017-Jun-25 20:00N 49°59' W 125°12'4 7.2
2017-Jun-25 19:30N 50°02' W 125°14'5 9.1
2017-Jun-25 19:00N 49°58' W 125°10'4 8.1
2017-Jun-25 18:30N 50°01' W 125°06'1 1.2
2017-Jun-25 18:00N 50°01' W 125°05'510.4
2017-Jun-25 17:30N 49°58' W 124°59'510.2
2017-Jun-25 17:00N 49°54' W 124°54'510.2
2017-Jun-25 16:30N 49°50' W 124°48'510.3
2017-Jun-25 16:00N 49°46' W 124°43'3 5.8
2017-Jun-25 15:31N 49°44' W 124°41'0 0.1
2017-Jun-25 15:01N 49°44' W 124°41'2 4.0
2017-Jun-25 14:30N 49°42' W 124°43'3 3.2
2017-Jun-25 13:30N 49°40' W 124°46'5 9.9
2017-Jun-25 13:00N 49°36' W 124°40'2 3.1
2017-Jun-25 12:30N 49°35' W 124°38'510.1
2017-Jun-25 12:00N 49°39' W 124°33'2 3.6
2017-Jun-25 11:30N 49°38' W 124°31'510.3
2017-Jun-25 11:00N 49°35' W 124°25'3 4.1
2017-Jun-25 10:18N 49°32' W 124°26'2 4.8
2017-Jun-25 09:57N 49°31' W 124°28'2 4.6
2017-Jun-25 09:30N 49°29' W 124°29'1 1.4
2017-Jun-25 08:50N 49°28' W 124°30'1 3.8
2017-Jun-25 08:30N 49°28' W 124°32'510.8
2017-Jun-25 08:00N 49°28' W 124°40'4 7.8
2017-Jun-25 07:30N 49°29' W 124°46'0 0.1
2017-Jun-25 06:57N 49°29' W 124°46'4 7.8
2017-Jun-25 06:25N 49°28' W 124°40'4 9.9
2017-Jun-25 06:00N 49°27' W 124°34'5 9.9
2017-Jun-25 05:28N 49°27' W 124°25'3 7.3
2017-Jun-25 05:00N 49°27' W 124°20'2 3.2
2017-Jun-25 04:24N 49°25' W 124°22'1 2.0
2017-Jun-25 03:56N 49°24' W 124°21'5 9.1
2017-Jun-25 03:24N 49°21' W 124°15'2 4.7
2017-Jun-25 02:57N 49°20' W 124°12'4 7.6
2017-Jun-25 02:22N 49°22' W 124°06'3 2.7
2017-Jun-25 01:13N 49°24' W 124°09'6 4.3
2017-Jun-24 23:43N 49°30' W 124°06'0 0.3
2017-Jun-24 23:13N 49°30' W 124°06'0 0.1
2017-Jun-24 22:45N 49°30' W 124°06'2 9.5
2017-Jun-24 22:30N 49°29' W 124°03'510.4
2017-Jun-24 22:00N 49°26' W 123°56'611.1
2017-Jun-24 21:29N 49°24' W 123°48'2 2.4
2017-Jun-24 20:49N 49°23' W 123°46'2 4.1
2017-Jun-24 20:24N 49°22' W 123°47'3 7.0
2017-Jun-24 20:00N 49°19' W 123°48'0 0.2
2017-Jun-24 19:30N 49°19' W 123°48'3 5.0
2017-Jun-24 18:59N 49°17' W 123°50'2 4.3
2017-Jun-24 18:24N 49°14' W 123°51'3 5.8
2017-Jun-24 17:52N 49°15' W 123°46'1 2.0
2017-Jun-24 17:30N 49°15' W 123°45'0 0.1
2017-Jun-24 17:00N 49°15' W 123°45'2 2.9
2017-Jun-24 16:25N 49°14' W 123°43'4 9.3
2017-Jun-24 15:59N 49°11' W 123°39'2 5.0
2017-Jun-24 15:29N 49°09' W 123°37'0 0.1
2017-Jun-24 14:58N 49°09' W 123°37'3 2.8
2017-Jun-24 14:00N 49°10' W 123°33'5 9.4
2017-Jun-24 13:30N 49°12' W 123°27'0 0.3
2017-Jun-24 13:00N 49°12' W 123°26'2 3.6
2017-Jun-24 12:30N 49°13' W 123°24'2 4.6
2017-Jun-24 12:00N 49°14' W 123°21'610.4
2017-Jun-24 11:24N 49°07' W 123°20'3 7.1
2017-Jun-24 11:00N 49°04' W 123°19'2 4.8
2017-Jun-24 10:30N 49°03' W 123°22'0 0.1
2017-Jun-24 09:45N 49°03' W 123°22'1 3.8
2017-Jun-24 09:30N 49°03' W 123°24'2 2.7
2017-Jun-24 08:45N 49°02' W 123°26'1 2.3
2017-Jun-24 08:30N 49°02' W 123°27'2 4.7
2017-Jun-24 07:59N 49°00' W 123°30'4 7.5
2017-Jun-24 07:24N 48°59' W 123°24'4 9.4
2017-Jun-24 07:00N 48°58' W 123°18'3 4.8
2017-Jun-24 06:26N 48°60' W 123°15'1 2.4
2017-Jun-24 05:59N 48°60' W 123°13'5 9.2
2017-Jun-24 05:26N 48°55' W 123°11'3 7.7
2017-Jun-24 05:00N 48°51' W 123°11'0 0.0
2017-Jun-24 04:30N 48°51' W 123°11'2 4.2
2017-Jun-24 04:00N 48°53' W 123°09'2 4.7
2017-Jun-24 03:30N 48°55' W 123°07'3 4.8
2017-Jun-24 02:58N 48°57' W 123°04'510.0
2017-Jun-24 02:30N 48°57' W 122°57'2 4.1
2017-Jun-24 01:59N 48°57' W 123°00'2 2.8
2017-Jun-24 01:26N 48°55' W 122°60'4 8.2
2017-Jun-24 00:56N 48°52' W 123°03'2 3.6
2017-Jun-24 00:22N 48°50' W 123°05'155915.4
2017-Jun-24 00:12N 49°33' W 126°53'156307.6
2017-Jun-23 23:41N 48°49' W 123°04'3 6.2
2017-Jun-23 23:11N 48°47' W 123°00'1 4.5
2017-Jun-23 22:57N 48°47' W 123°02'2 5.2
2017-Jun-23 22:29N 48°45' W 123°05'3 5.2
2017-Jun-23 22:00N 48°44' W 123°08'4 7.1
2017-Jun-23 21:30N 48°46' W 123°03'3 6.1
2017-Jun-23 21:00N 48°48' W 123°00'6 5.4
2017-Jun-23 19:53N 48°47' W 122°51'5 7.5
2017-Jun-23 19:14N 48°44' W 122°45'2 8.8
2017-Jun-23 19:00N 48°43' W 122°44'4 7.3
2017-Jun-23 18:30N 48°39' W 122°43'3 6.1
2017-Jun-23 18:00N 48°36' W 122°45'3 5.7
2017-Jun-23 17:30N 48°33' W 122°45'3 6.0
2017-Jun-23 17:00N 48°30' W 122°44'3 5.6
2017-Jun-23 16:30N 48°27' W 122°44'2 3.0
2017-Jun-23 15:54N 48°26' W 122°45'2 4.9
2017-Jun-23 15:26N 48°24' W 122°48'3 7.3
2017-Jun-23 14:59N 48°24' W 122°53'7 6.5
2017-Jun-23 13:57N 48°23' W 123°03'3 5.8
2017-Jun-23 13:30N 48°21' W 122°59'7 9.4
2017-Jun-23 12:48N 48°15' W 122°59'0 0.6
2017-Jun-23 12:30N 48°15' W 122°58'2 4.3
2017-Jun-23 12:00N 48°14' W 123°02'3 6.3
2017-Jun-23 11:30N 48°13' W 123°06'4 7.6
2017-Jun-23 11:00N 48°16' W 123°10'2 4.5
2017-Jun-23 10:30N 48°18' W 123°12'3 6.7
2017-Jun-23 10:00N 48°20' W 123°15'3 6.4
2017-Jun-23 09:30N 48°23' W 123°18'3 6.4
2017-Jun-23 09:00N 48°20' W 123°18'5 9.3
2017-Jun-23 08:30N 48°15' W 123°17'1 2.7
2017-Jun-23 08:00N 48°14' W 123°18'3 5.7
2017-Jun-23 07:29N 48°11' W 123°19'3 7.1
2017-Jun-23 07:00N 48°11' W 123°24'510.6
2017-Jun-23 06:30N 48°12' W 123°32'5 9.9
2017-Jun-23 06:00N 48°12' W 123°39'2 4.6
2017-Jun-23 05:29N 48°13' W 123°43'3 5.8
2017-Jun-23 05:00N 48°16' W 123°43'3 5.8
2017-Jun-23 04:30N 48°18' W 123°43'2 3.8
2017-Jun-23 03:59N 48°20' W 123°46'4 9.2
2017-Jun-23 03:30N 48°21' W 123°52'5 9.3
2017-Jun-23 03:00N 48°22' W 123°59'2 3.9
2017-Jun-23 02:30N 48°21' W 124°01'3 6.0
2017-Jun-23 02:00N 48°19' W 124°04'0 0.1
2017-Jun-23 01:30N 48°19' W 124°04'4 7.9
2017-Jun-23 01:00N 48°15' W 124°07'2 3.6
2017-Jun-23 00:30N 48°16' W 124°09'510.1
2017-Jun-23 00:00N 48°18' W 124°16'5 9.7
2017-Jun-22 23:30N 48°21' W 124°22'510.0
2017-Jun-22 23:00N 48°23' W 124°29'4 8.8
2017-Jun-22 22:30N 48°25' W 124°35'1 1.3
2017-Jun-22 22:00N 48°25' W 124°36'3 5.8
2017-Jun-22 21:30N 48°28' W 124°33'1 1.4
2017-Jun-22 21:00N 48°28' W 124°33'3 6.4
2017-Jun-22 20:30N 48°31' W 124°30'1 1.1
2017-Jun-22 20:00N 48°32' W 124°30'1 1.4
2017-Jun-22 19:30N 48°31' W 124°32'510.0
2017-Jun-22 19:00N 48°32' W 124°39'3 5.5
2017-Jun-22 18:30N 48°33' W 124°43'2 4.9
2017-Jun-22 18:00N 48°31' W 124°43'1 1.7
2017-Jun-22 17:31N 48°30' W 124°44'0 0.2
2017-Jun-22 17:00N 48°30' W 124°44'3 5.3
2017-Jun-22 16:30N 48°27' W 124°45'2 4.0
2017-Jun-22 16:00N 48°25' W 124°45'0 0.1
2017-Jun-22 15:30N 48°25' W 124°45'0 0.1
2017-Jun-22 14:59N 48°25' W 124°45'4 4.2
2017-Jun-22 14:00N 48°27' W 124°39'510.4
2017-Jun-22 13:30N 48°27' W 124°32'510.8
2017-Jun-22 13:00N 48°26' W 124°24'1041622.9
2017-Jun-22 12:57N 49°21' W 126°39'110251.9
2017-Jun-22 12:30N 48°24' W 124°16'1065435.1
2017-Jun-22 12:29N 49°18' W 126°34'111231.5
2017-Jun-22 12:00N 48°22' W 124°08'10738398.4
2017-Jun-22 12:00N 49°16' W 126°28'5 9.8
2017-Jun-22 11:30N 49°13' W 126°22'1082770.2
2017-Jun-22 11:28N 48°20' W 123°59'103224.7
2017-Jun-22 11:00N 49°10' W 126°16'1083245.4
2017-Jun-22 10:58N 48°18' W 123°52'510.7
2017-Jun-22 10:30N 48°17' W 123°44'10812563.2
2017-Jun-22 10:30N 49°07' W 126°10'5 9.7
2017-Jun-22 10:00N 49°04' W 126°04'10819483.5
2017-Jun-22 10:00N 48°16' W 123°37'103209.3
2017-Jun-22 09:30N 49°01' W 125°58'5 9.6
2017-Jun-22 09:00N 48°58' W 125°52'10441405.4
2017-Jun-22 09:00N 48°20' W 123°27'99198.7
2017-Jun-22 08:30N 48°56' W 125°46'10019035.9
2017-Jun-22 08:30N 48°23' W 123°22'96193.7
2017-Jun-22 08:00N 48°53' W 125°40'10017910.6
2017-Jun-22 08:00N 48°24' W 123°16'95192.2
2017-Jun-22 07:30N 48°50' W 125°34'97349987.7
2017-Jun-22 07:30N 48°26' W 123°12'93185.3
2017-Jun-22 07:00N 48°47' W 125°28'9417731.2
2017-Jun-22 07:00N 48°29' W 123°09'89179.6
2017-Jun-22 06:30N 48°44' W 125°22'8831704.3
2017-Jun-22 06:30N 48°31' W 123°11'3 6.8
2017-Jun-22 06:00N 48°34' W 123°13'81807.0
2017-Jun-22 05:54N 48°42' W 125°15'80200.7
2017-Jun-22 05:30N 48°36' W 123°14'762306.7
2017-Jun-22 05:28N 48°40' W 125°09'76162.0
2017-Jun-22 05:00N 48°38' W 123°15'71256096.5
2017-Jun-22 05:00N 48°38' W 125°02'71142.4
2017-Jun-22 04:30N 48°38' W 123°15'62124.1
2017-Jun-22 04:00N 48°34' W 124°48'510.3
2017-Jun-22 03:30N 48°32' W 124°41'55109.6
2017-Jun-22 03:00N 48°45' W 123°20'51185313.2
2017-Jun-22 03:00N 48°31' W 124°35'4693.0
2017-Jun-22 02:30N 48°43' W 123°27'4376974.1
2017-Jun-22 02:30N 48°30' W 124°29'4 8.4
2017-Jun-22 02:00N 48°29' W 124°23'3773.4
2017-Jun-22 01:31N 48°39' W 123°30'3440317.3
2017-Jun-22 01:30N 48°27' W 124°17'4 8.4
2017-Jun-22 01:00N 48°25' W 124°11'321798.4
2017-Jun-22 00:59N 48°39' W 123°27'3160.6
2017-Jun-22 00:29N 48°23' W 124°06'31713.2
2017-Jun-22 00:26N 48°39' W 123°27'2965.9
2017-Jun-22 00:00N 48°21' W 124°01'291910.6
2017-Jun-21 23:59N 48°39' W 123°27'2755.5
2017-Jun-21 23:30N 48°20' W 123°56'271865.0
2017-Jun-21 23:29N 48°39' W 123°27'0 0.0
2017-Jun-21 22:59N 48°39' W 123°27'251188.7
2017-Jun-21 22:58N 48°19' W 123°49'2552.4
2017-Jun-21 22:29N 48°39' W 123°27'242337.4
2017-Jun-21 22:29N 48°18' W 123°44'4 7.7
2017-Jun-21 22:00N 48°17' W 123°39'23346.2
2017-Jun-21 21:56N 48°39' W 123°27'2353.1
2017-Jun-21 21:30N 48°16' W 123°32'232475.4
2017-Jun-21 21:29N 48°39' W 123°27'2143.5
2017-Jun-21 21:00N 48°18' W 123°28'211161.8
2017-Jun-21 20:59N 48°39' W 123°27'1734.2
2017-Jun-21 20:30N 48°23' W 123°24'171396.7
2017-Jun-21 20:29N 48°39' W 123°27'1736.2
2017-Jun-21 20:00N 48°23' W 123°18'17965.7
2017-Jun-21 19:59N 48°39' W 123°27'1736.1
2017-Jun-21 19:30N 48°24' W 123°14'17147.3
2017-Jun-21 19:23N 48°39' W 123°27'1539.3
2017-Jun-21 19:00N 48°28' W 123°12'15831.3
2017-Jun-21 18:59N 48°39' W 123°27'1122.7
2017-Jun-21 18:30N 48°33' W 123°13'11668.4
2017-Jun-21 18:29N 48°39' W 123°27'816.5
2017-Jun-21 18:00N 48°39' W 123°15'8455.6
2017-Jun-21 17:59N 48°39' W 123°27'816.7
2017-Jun-21 17:30N 48°44' W 123°17'8468.8
2017-Jun-21 17:29N 48°39' W 123°27'510.7
2017-Jun-21 17:00N 48°44' W 123°24'5282.6
2017-Jun-21 16:59N 48°39' W 123°27'2 5.1
2017-Jun-21 16:30N 48°41' W 123°30'2137.4
2017-Jun-21 16:29N 48°39' W 123°27'0 0.0
2017-Jun-21 15:59N 48°39' W 123°27'014.8
2017-Jun-21 15:59N 48°39' W 123°27'0 0.1
2017-Jun-21 15:29N 48°39' W 123°27'013.8
2017-Jun-21 15:29N 48°39' W 123°27'0 0.1
2017-Jun-21 14:59N 48°39' W 123°27'012.9
2017-Jun-21 14:59N 48°39' W 123°27'0 0.1
2017-Jun-21 13:59N 48°39' W 123°27'013.8
2017-Jun-21 13:59N 48°39' W 123°27'0 0.1
2017-Jun-21 13:29N 48°39' W 123°27'013.8
2017-Jun-21 13:29N 48°39' W 123°27'0 0.1
2017-Jun-21 12:59N 48°39' W 123°27'013.8
2017-Jun-21 12:59N 48°39' W 123°27'0 0.1
2017-Jun-21 12:29N 48°39' W 123°27'014.8
2017-Jun-21 12:29N 48°39' W 123°27'0 0.1
2017-Jun-21 11:59N 48°39' W 123°27'014.8
2017-Jun-21 11:59N 48°39' W 123°27'0 0.1
2017-Jun-21 11:29N 48°39' W 123°27'016.1
2017-Jun-21 11:29N 48°39' W 123°27'0 0.1
2017-Jun-21 10:59N 48°39' W 123°27'012.9
2017-Jun-21 10:59N 48°39' W 123°27'0 0.1
2017-Jun-21 10:29N 48°39' W 123°27'013.8
2017-Jun-21 10:29N 48°39' W 123°27'0 0.1
2017-Jun-21 09:59N 48°39' W 123°27'013.8
2017-Jun-21 09:59N 48°39' W 123°27'0 0.1
2017-Jun-21 09:29N 48°39' W 123°27'016.1
2017-Jun-21 09:29N 48°39' W 123°27'0 0.0
2017-Jun-21 08:59N 48°39' W 123°27'0 0.6
2017-Jun-21 08:53N 48°39' W 123°27'0 0.0
2017-Jun-21 08:29N 48°39' W 123°27'013.8
2017-Jun-21 08:29N 48°39' W 123°27'0 0.1
2017-Jun-21 07:59N 48°39' W 123°27'013.8
2017-Jun-21 07:59N 48°39' W 123°27'0 0.1
2017-Jun-21 07:29N 48°39' W 123°27'016.1
2017-Jun-21 07:29N 48°39' W 123°27'0 0.1
2017-Jun-21 06:59N 48°39' W 123°27'0 1.0
2017-Jun-21 06:56N 48°39' W 123°27'0 0.1
2017-Jun-21 06:29N 48°39' W 123°27'0 1.0
2017-Jun-21 06:26N 48°39' W 123°27'0 0.1
2017-Jun-21 05:59N 48°39' W 123°27'013.8
2017-Jun-21 05:59N 48°39' W 123°27'0 0.1
2017-Jun-21 05:29N 48°39' W 123°27'016.1
2017-Jun-21 05:29N 48°39' W 123°27'0 0.0
2017-Jun-21 04:59N 48°39' W 123°27'0 0.4
2017-Jun-21 04:50N 48°39' W 123°27'0 0.0
2017-Jun-21 04:29N 48°39' W 123°27'014.8
2017-Jun-21 04:29N 48°39' W 123°27'0 0.0
2017-Jun-21 03:59N 48°39' W 123°27'0 1.2
2017-Jun-21 03:56N 48°39' W 123°27'0 0.0
2017-Jun-21 03:29N 48°39' W 123°27'012.9
2017-Jun-21 03:29N 48°39' W 123°27'0 0.0
2017-Jun-21 02:59N 48°39' W 123°27'0 1.2
2017-Jun-21 02:56N 48°39' W 123°27'0 0.0
2017-Jun-21 02:29N 48°39' W 123°27'012.0
2017-Jun-21 02:29N 48°39' W 123°27'0 0.1
2017-Jun-21 01:59N 48°39' W 123°27'014.8
2017-Jun-21 01:59N 48°39' W 123°27'0 0.1
2017-Jun-21 01:29N 48°39' W 123°27'016.1
2017-Jun-21 01:29N 48°39' W 123°27'0 0.1
2017-Jun-21 00:59N 48°39' W 123°27'013.8
2017-Jun-21 00:59N 48°39' W 123°27'0 0.1
2017-Jun-21 00:29N 48°39' W 123°27'013.8
2017-Jun-21 00:29N 48°39' W 123°27'0 0.1
2017-Jun-20 23:59N 48°39' W 123°27'016.1
2017-Jun-20 23:59N 48°39' W 123°27'0 0.1
2017-Jun-20 23:29N 48°39' W 123°27'014.8
2017-Jun-20 23:29N 48°39' W 123°27'0 0.1
2017-Jun-20 22:59N 48°39' W 123°27'014.8
2017-Jun-20 22:59N 48°39' W 123°27'0 0.1
2017-Jun-20 22:29N 48°39' W 123°27'014.8
2017-Jun-20 22:29N 48°39' W 123°27'0 0.1
2017-Jun-20 21:59N 48°39' W 123°27'012.9
2017-Jun-20 21:59N 48°39' W 123°27'0 0.1
2017-Jun-20 21:29N 48°39' W 123°27'016.1
2017-Jun-20 21:29N 48°39' W 123°27'0 0.1
2017-Jun-20 20:59N 48°39' W 123°27'014.8
2017-Jun-20 20:59N 48°39' W 123°27'0 0.1
2017-Jun-20 20:29N 48°39' W 123°27'013.8
2017-Jun-20 20:29N 48°39' W 123°27'0 0.1
2017-Jun-20 19:59N 48°39' W 123°27'012.9
2017-Jun-20 19:59N 48°39' W 123°27'0 0.1
2017-Jun-20 19:29N 48°39' W 123°27'013.8
2017-Jun-20 19:29N 48°39' W 123°27'0 0.1
2017-Jun-20 18:59N 48°39' W 123°27'017.5
2017-Jun-20 18:59N 48°39' W 123°27'0 0.1
2017-Jun-20 18:29N 48°39' W 123°27'013.8
2017-Jun-20 18:29N 48°39' W 123°27'0 0.0
2017-Jun-20 17:59N 48°39' W 123°27'0 0.6
2017-Jun-20 17:53N 48°39' W 123°27'0 0.0
2017-Jun-20 17:29N 48°39' W 123°27'014.8
2017-Jun-20 17:29N 48°39' W 123°27'0 0.1
2017-Jun-20 16:59N 48°39' W 123°27'013.8
2017-Jun-20 16:59N 48°39' W 123°27'0 0.0
2017-Jun-20 16:29N 48°39' W 123°27'0 1.2
2017-Jun-20 16:26N 48°39' W 123°27'0 0.0
2017-Jun-20 15:59N 48°39' W 123°27'012.9
2017-Jun-20 15:59N 48°39' W 123°27'0 0.1
2017-Jun-20 15:29N 48°39' W 123°27'024.1
2017-Jun-20 15:29N 48°39' W 123°27'0 0.0
2017-Jun-20 14:59N 48°39' W 123°27'0 1.2
2017-Jun-20 14:56N 48°39' W 123°27'0 0.1
2017-Jun-20 14:29N 48°39' W 123°27'1 2.4
2017-Jun-20 14:00N 48°39' W 123°29'1 1.8
2017-Jun-20 13:30N 48°40' W 123°30'291.2
2017-Jun-20 13:29N 48°39' W 123°27'2 4.2
2017-Jun-20 13:00N 48°40' W 123°30'292.3
2017-Jun-20 12:59N 48°39' W 123°27'2 4.3
2017-Jun-20 12:30N 48°40' W 123°30'292.0
2017-Jun-20 12:29N 48°39' W 123°27'2 4.2
2017-Jun-20 12:00N 48°39' W 123°30'292.5
2017-Jun-20 11:59N 48°39' W 123°27'2 4.7
2017-Jun-20 11:31N 48°40' W 123°30'299.3
2017-Jun-20 11:29N 48°39' W 123°27'2 4.7
2017-Jun-20 11:00N 48°40' W 123°30'2101.3
2017-Jun-20 10:59N 48°39' W 123°27'2 4.5
2017-Jun-20 10:30N 48°40' W 123°30'297.5
2017-Jun-20 10:29N 48°39' W 123°27'2 4.3
2017-Jun-20 10:00N 48°40' W 123°30'230.9
2017-Jun-20 09:56N 48°39' W 123°27'2 4.8
2017-Jun-20 09:30N 48°39' W 123°30'290.4
2017-Jun-20 09:29N 48°39' W 123°27'3 5.8
2017-Jun-20 09:00N 48°41' W 123°30'3125.2
2017-Jun-20 08:59N 48°39' W 123°27'511.1
2017-Jun-20 08:30N 48°44' W 123°24'5238.5
2017-Jun-20 08:29N 48°39' W 123°27'917.8
2017-Jun-20 08:00N 48°44' W 123°16'9421.5
2017-Jun-20 07:59N 48°39' W 123°27'817.7
2017-Jun-20 07:30N 48°39' W 123°14'8386.6
2017-Jun-20 07:29N 48°39' W 123°27'1123.5
2017-Jun-20 07:00N 48°34' W 123°12'11525.4
2017-Jun-20 06:59N 48°39' W 123°27'1633.7
2017-Jun-20 06:30N 48°28' W 123°09'16221.1
2017-Jun-20 06:26N 48°39' W 123°27'1843.0
2017-Jun-20 06:00N 48°23' W 123°13'18827.3
2017-Jun-20 05:59N 48°39' W 123°27'1734.5
2017-Jun-20 05:30N 48°23' W 123°22'172107.4
2017-Jun-20 05:29N 48°39' W 123°27'1429.0
2017-Jun-20 05:00N 48°25' W 123°27'141772.7
2017-Jun-20 04:59N 48°39' W 123°27'0 0.0
2017-Jun-20 04:29N 48°39' W 123°27'171489.3
2017-Jun-20 04:28N 48°22' W 123°29'2 3.6
2017-Jun-20 04:00N 48°23' W 123°27'16701.3
2017-Jun-20 03:59N 48°39' W 123°27'1427.6
2017-Jun-20 03:29N 48°26' W 123°27'142451.4
2017-Jun-20 03:29N 48°39' W 123°27'1633.0
2017-Jun-20 03:00N 48°23' W 123°25'16718.4
2017-Jun-20 02:59N 48°39' W 123°27'1735.6
2017-Jun-20 02:30N 48°22' W 123°24'17785.9
2017-Jun-20 02:29N 48°39' W 123°27'1633.4
2017-Jun-20 02:00N 48°24' W 123°20'16701.8
2017-Jun-20 01:59N 48°39' W 123°27'1836.8
2017-Jun-20 01:30N 48°22' W 123°20'18801.6
2017-Jun-20 01:29N 48°39' W 123°27'2041.8
2017-Jun-20 01:01N 48°20' W 123°20'20865.5
2017-Jun-20 00:59N 48°39' W 123°27'1838.5
2017-Jun-20 00:30N 48°22' W 123°19'18837.1
2017-Jun-20 00:29N 48°39' W 123°27'1734.8
2017-Jun-20 00:00N 48°24' W 123°19'17750.1
2017-Jun-19 23:59N 48°39' W 123°27'1939.9
2017-Jun-19 23:30N 48°21' W 123°19'19879.4
2017-Jun-19 23:29N 48°39' W 123°27'1940.5
2017-Jun-19 23:00N 48°21' W 123°16'19882.1
2017-Jun-19 22:59N 48°39' W 123°27'1735.1
2017-Jun-19 22:30N 48°26' W 123°12'17745.3
2017-Jun-19 22:29N 48°39' W 123°27'1225.0
2017-Jun-19 22:00N 48°32' W 123°13'12531.6
2017-Jun-19 21:59N 48°39' W 123°27'817.6
2017-Jun-19 21:31N 48°37' W 123°15'8378.5
2017-Jun-19 21:29N 48°39' W 123°27'816.9
2017-Jun-19 21:01N 48°43' W 123°16'8362.5
2017-Jun-19 20:59N 48°39' W 123°27'919.4
2017-Jun-19 20:31N 48°47' W 123°21'9417.3
2017-Jun-19 20:29N 48°39' W 123°27'0 0.0
2017-Jun-19 19:59N 48°39' W 123°27'0 0.0
2017-Jun-19 19:29N 48°39' W 123°27'171562.4
2017-Jun-19 19:28N 48°56' W 123°20'510.3
2017-Jun-19 19:00N 48°60' W 123°25'211758.9
2017-Jun-19 18:59N 48°39' W 123°27'2450.4
2017-Jun-19 18:30N 49°03' W 123°30'241263.6
2017-Jun-19 18:29N 48°39' W 123°27'0 0.0
2017-Jun-19 17:59N 48°39' W 123°27'291226.0
2017-Jun-19 17:58N 49°07' W 123°35'2959.9
2017-Jun-19 17:29N 48°39' W 123°27'0 0.0
2017-Jun-19 16:59N 48°39' W 123°27'0 0.0
2017-Jun-19 16:26N 48°39' W 123°27'0 0.0
2017-Jun-19 15:59N 48°39' W 123°27'0 0.0
2017-Jun-19 15:29N 48°39' W 123°27'0 0.0
2017-Jun-19 14:59N 48°39' W 123°27'2 1.9
2017-Jun-19 14:01N 48°40' W 123°30'2147.7
2017-Jun-19 14:00N 48°42' W 123°30'0 0.7 330 / 11019.3 14.613.3
2017-Jun-19 13:30N 48°42' W 123°30'66482.0
2017-Jun-19 13:22N 49°32' W 124°34'66182.9
2017-Jun-19 13:01N 48°43' W 123°25'294.7
2017-Jun-19 13:00N 48°42' W 123°24'75299.6 360 / 51019.6 13.913.4
2017-Jun-19 12:44N 49°38' W 124°41'74317.7
2017-Jun-19 12:31N 48°45' W 123°22'77275919.8
2017-Jun-19 12:30N 49°40' W 124°44'79158.5
2017-Jun-19 12:01N 48°44' W 123°17'8414458.1
2017-Jun-19 12:00N 49°43' W 124°49'857884.7
2017-Jun-19 12:00N 48°42' W 123°18'3 5.4 340 / 121019.0 13.613.3
2017-Jun-19 11:31N 48°41' W 123°15'941288.7
2017-Jun-19 11:26N 49°47' W 124°55'97227.9
2017-Jun-19 11:00N 48°36' W 123°13'10236819.1
2017-Jun-19 11:00N 49°51' W 125°00'1037580.9
2017-Jun-19 11:00N 48°36' W 123°12'4 7.3 340 / 111019.7 13.012.6
2017-Jun-19 10:30N 48°33' W 123°11'1123140.4
2017-Jun-19 10:28N 49°55' W 125°06'4 9.7
2017-Jun-19 10:00N 49°58' W 125°11'120216417.3
2017-Jun-19 10:00N 48°28' W 123°10'3161.3
2017-Jun-19 10:00N 48°30' W 123°12'612.4 330 / 151019.5 12.912.6
2017-Jun-19 09:30N 48°24' W 123°12'126452566.6
2017-Jun-19 09:30N 50°02' W 125°13'4 8.2
2017-Jun-19 09:00N 50°05' W 125°17'12942160.3
2017-Jun-19 09:00N 48°22' W 123°19'2154.9
2017-Jun-19 09:00N 48°24' W 123°18'132272.9 360 / 81020.7 14.313.9
2017-Jun-19 08:30N 50°09' W 125°21'13343651.2
2017-Jun-19 08:30N 48°19' W 123°24'510.0
2017-Jun-19 08:00N 48°15' W 123°28'13855356.6
2017-Jun-19 08:00N 50°12' W 125°22'13610174.7
2017-Jun-19 08:00N 48°18' W 123°30'5 9.3 120 / 61020.7 13.613.2
2017-Jun-19 07:30N 48°17' W 123°37'13845019.9
2017-Jun-19 07:30N 50°15' W 125°23'135262.5
2017-Jun-19 07:00N 48°18' W 123°42'139499143.2 140 / 101021.4 12.512.2
2017-Jun-19 06:59N 50°19' W 125°25'13815968.2
2017-Jun-19 06:59N 48°18' W 123°45'510.1
2017-Jun-19 06:30N 48°19' W 123°52'5 9.4
2017-Jun-19 06:00N 48°19' W 123°59'4335.0
2017-Jun-19 06:00N 48°18' W 123°54'612.2 120 / 71021.8 12.311.9
2017-Jun-19 05:30N 48°20' W 124°02'510.8
2017-Jun-19 05:00N 48°23' W 124°10'2196.1
2017-Jun-19 05:00N 48°24' W 124°12'3 7.1 110 / 71021.7 12.311.9
2017-Jun-19 04:30N 48°25' W 124°17'510.6
2017-Jun-19 04:00N 48°27' W 124°24'3365.9
2017-Jun-19 04:00N 48°30' W 124°24'1242962.5 100 / 71021.5 12.512.1
2017-Jun-19 03:57N 50°22' W 125°46'123277.6
2017-Jun-19 03:30N 48°29' W 124°32'611.5
2017-Jun-19 03:00N 48°32' W 124°40'2146.0
2017-Jun-19 03:00N 48°30' W 124°42'510.8 110 / 101021.3 13.512.7
2017-Jun-19 02:30N 48°34' W 124°48'510.8
2017-Jun-19 02:00N 48°34' W 124°56'2216.8
2017-Jun-19 02:00N 48°36' W 124°54'713.8 110 / 111021.3 12.912.6
2017-Jun-19 01:30N 48°34' W 125°04'611.3
2017-Jun-19 01:00N 48°36' W 125°12'311.4 120 / 131021.5 12.812.5
2017-Jun-19 00:45N 48°34' W 125°15'3 9.1
2017-Jun-19 00:27N 48°34' W 125°19'4 8.0
2017-Jun-19 00:00N 48°34' W 125°25'2114.6
2017-Jun-19 00:00N 48°36' W 125°24'510.6 120 / 91021.9 12.812.5
2017-Jun-18 23:30N 48°35' W 125°32'4 8.5
2017-Jun-18 23:00N 48°35' W 125°38'295.7
2017-Jun-18 23:00N 48°36' W 125°36'612.2 130 / 101021.8 12.812.4
2017-Jun-18 22:30N 48°36' W 125°45'5 9.7
2017-Jun-18 22:00N 48°36' W 125°52'170.2
2017-Jun-18 22:00N 48°36' W 125°54'4 7.9 140 / 91021.6 13.313.0
2017-Jun-18 21:30N 48°36' W 125°60'510.1
2017-Jun-18 21:00N 48°37' W 126°07'197.0
2017-Jun-18 21:00N 48°36' W 126°06'612.2 160 / 91021.0 13.613.2
2017-Jun-18 20:28N 48°37' W 126°15'612.3
2017-Jun-18 20:00N 48°36' W 126°24'8 7.9 180 / 91020.7 13.413.1
2017-Jun-18 19:00N 48°36' W 126°36'7 7.2 210 / 101020.3 13.212.9
2017-Jun-18 18:00N 48°42' W 126°42'8 7.9 210 / 111019.5 13.212.8
2017-Jun-18 17:00N 48°42' W 126°54'1211.9 180 / 121018.6 13.012.7
2017-Jun-18 16:00N 48°42' W 127°12'167240.9 200 / 121018.1 12.912.6
2017-Jun-18 15:18N 51°27' W 127°51'165536.0
2017-Jun-18 15:00N 48°42' W 127°30'1694681.8 210 / 101017.3 12.912.5
2017-Jun-18 14:57N 51°30' W 127°52'1010.9
2017-Jun-18 14:00N 51°41' W 127°55'17910898.8
2017-Jun-18 14:00N 48°42' W 127°48'184380.5 220 / 131017.1 12.912.6
2017-Jun-18 13:30N 51°46' W 127°57'611.1
2017-Jun-18 13:01N 51°51' W 127°57'18311009.1
2017-Jun-18 13:00N 48°48' W 128°00'189376.5 220 / 141016.4 12.912.5
2017-Jun-18 12:29N 51°57' W 127°56'511.2
2017-Jun-18 12:00N 52°03' W 127°56'19522673.0
2017-Jun-18 12:00N 48°48' W 128°18'197342.0 220 / 131016.1 12.812.4
2017-Jun-18 11:25N 52°04' W 128°03'198464.8
2017-Jun-18 11:00N 48°48' W 128°36'20014126.8 220 / 131015.8 12.812.4
2017-Jun-18 10:59N 52°07' W 128°08'6 7.0
2017-Jun-18 10:08N 52°13' W 128°09'2071476.2
2017-Jun-18 10:00N 48°48' W 128°48'20710639.9 210 / 131015.4 12.712.3
2017-Jun-18 09:58N 52°14' W 128°12'510.1
2017-Jun-18 09:30N 52°15' W 128°19'5 9.8
2017-Jun-18 09:00N 52°16' W 128°27'20968456.6
2017-Jun-18 09:00N 48°48' W 129°06'214403.1 200 / 121015.0 12.612.2
2017-Jun-18 08:28N 52°21' W 128°31'209444.9
2017-Jun-18 08:00N 48°54' W 129°18'21485414.7 190 / 121014.4 12.612.2
2017-Jun-18 07:59N 52°25' W 128°29'216216.0
2017-Jun-18 07:00N 48°54' W 129°36'8 7.9 170 / 141014.4 12.612.3
2017-Jun-18 06:00N 48°54' W 129°48'8 7.9 120 / 251013.1 12.111.7
2017-Jun-18 05:00N 48°54' W 130°00'8 7.9 120 / 251013.3 11.811.4
2017-Jun-18 04:00N 48°54' W 130°12'1211.8 120 / 261013.6 11.411.0
2017-Jun-18 03:00N 48°54' W 130°30'8 7.9 120 / 261013.6 11.310.8
2017-Jun-18 02:00N 48°54' W 130°42'8 7.9 120 / 261013.5 11.210.6
2017-Jun-18 01:00N 48°54' W 130°54'7 7.2 120 / 261014.8 11.110.4
2017-Jun-18 00:00N 49°00' W 131°00'10 9.9 120 / 241014.6 11.210.1
2017-Jun-17 23:00N 49°06' W 131°12'1313.2 120 / 241015.5 11.3 9.5
2017-Jun-17 22:00N 49°12' W 131°30'8 7.8 120 / 221016.0 11.1 9.5
2017-Jun-17 21:00N 49°12' W 131°42'10 9.9 120 / 211016.1 10.9 8.6
2017-Jun-17 20:00N 49°18' W 131°54'1313.2 120 / 231016.2 11.0 8.1
2017-Jun-17 19:00N 49°24' W 132°12'8 7.8 120 / 211016.6 10.8 8.5
2017-Jun-17 18:00N 49°24' W 132°24'10 9.8 130 / 201016.9 11.0 9.2
2017-Jun-17 17:00N 49°30' W 132°36'10 9.8 130 / 181017.2 10.7 8.5
2017-Jun-17 16:00N 49°36' W 132°48'1211.7 130 / 171017.6 10.8 9.1
2017-Jun-17 15:00N 49°36' W 133°06'8 7.8 130 / 171017.0 10.8 9.2
2017-Jun-17 14:00N 49°36' W 133°18'1313.1 130 / 161017.2 10.7 9.2
2017-Jun-17 13:00N 49°42' W 133°36'1211.6 130 / 171017.2 10.7 9.1
2017-Jun-17 12:00N 49°42' W 133°54'8 7.8 130 / 171017.6 10.8 8.8
2017-Jun-17 11:00N 49°42' W 134°06'1211.6 130 / 161018.1 10.8 8.8
2017-Jun-17 10:00N 49°42' W 134°24'8 7.8 140 / 151018.1 10.9 9.2
2017-Jun-17 09:00N 49°42' W 134°36'1313.1 140 / 161018.2 11.0 8.6
2017-Jun-17 08:00N 49°48' W 134°54'8 7.7 150 / 161018.6 11.0 8.6
2017-Jun-17 07:00N 49°48' W 135°06'1211.6 140 / 141019.0 11.0 8.5
2017-Jun-17 06:00N 49°48' W 135°24'1211.6 140 / 141018.6 11.1 8.3
2017-Jun-17 05:00N 49°48' W 135°42'8 7.7 140 / 141018.8 11.1 7.8
2017-Jun-17 04:00N 49°48' W 135°54'1211.6 150 / 131018.7 11.0 8.3
2017-Jun-17 03:00N 49°48' W 136°12'10 9.8 150 / 131018.8 11.0 8.6
2017-Jun-17 02:00N 49°54' W 136°24'1211.6 150 / 141018.8 10.9 8.5
2017-Jun-17 01:00N 49°54' W 136°42'8 7.7 150 / 131018.8 10.8 8.6
2017-Jun-17 00:00N 49°54' W 136°54'   150 / 131018.7 10.8 8.3

Dump ship's entire track history